createdAt,value
2018-08-04T00:00:13.420Z,1010.7
2018-08-04T00:01:15.477Z,1010.7
2018-08-04T00:02:17.518Z,1010.7
2018-08-04T00:03:19.566Z,1010.7
2018-08-04T00:04:21.618Z,1010.7
2018-08-04T00:05:23.664Z,1010.7
2018-08-04T00:06:25.717Z,1010.7
2018-08-04T00:07:28.446Z,1010.6
2018-08-04T00:08:30.492Z,1010.7
2018-08-04T00:09:32.533Z,1010.6
2018-08-04T00:10:34.589Z,1010.6
2018-08-04T00:11:36.643Z,1010.6
2018-08-04T00:12:38.977Z,1010.6
2018-08-04T00:13:41.419Z,1010.6
2018-08-04T00:14:43.781Z,1010.7
2018-08-04T00:15:45.838Z,1010.7
2018-08-04T00:16:47.881Z,1010.6
2018-08-04T00:17:49.929Z,1010.6
2018-08-04T00:18:51.974Z,1010.6
2018-08-04T00:19:54.028Z,1010.6
2018-08-04T00:20:56.073Z,1010.6
2018-08-04T00:21:58.120Z,1010.6
2018-08-04T00:23:00.187Z,1010.6
2018-08-04T00:24:02.619Z,1010.5
2018-08-04T00:25:05.245Z,1010.6
2018-08-04T00:26:07.598Z,1010.5
2018-08-04T00:27:09.639Z,1010.6
2018-08-04T00:28:12.002Z,1010.5
2018-08-04T00:29:14.051Z,1010.6
2018-08-04T00:30:16.100Z,1010.5
2018-08-04T00:31:18.155Z,1010.5
2018-08-04T00:32:20.196Z,1010.5
2018-08-04T00:33:22.256Z,1010.5
2018-08-04T00:34:24.308Z,1010.5
2018-08-04T00:35:26.350Z,1010.5
2018-08-04T00:36:28.404Z,1010.5
2018-08-04T00:37:30.467Z,1010.5
2018-08-04T00:38:32.511Z,1010.5
2018-08-04T00:39:34.862Z,1010.5
2018-08-04T00:40:37.195Z,1010.5
2018-08-04T00:41:39.845Z,1010.5
2018-08-04T00:42:42.186Z,1010.5
2018-08-04T00:43:44.526Z,1010.5
2018-08-04T00:44:46.951Z,1010.5
2018-08-04T00:45:49.391Z,1010.4
2018-08-04T00:46:51.449Z,1010.4
2018-08-04T00:47:53.495Z,1010.4
2018-08-04T00:48:55.560Z,1010.4
2018-08-04T00:49:57.600Z,1010.4
2018-08-04T00:50:59.647Z,1010.4
2018-08-04T00:52:01.703Z,1010.4
2018-08-04T00:53:03.755Z,1010.4
2018-08-04T00:54:06.106Z,1010.4
2018-08-04T00:55:08.211Z,1010.4
2018-08-04T00:56:10.225Z,1010.4
2018-08-04T00:57:12.543Z,1010.4
2018-08-04T00:58:14.602Z,1010.4
2018-08-04T00:59:16.654Z,1010.3
2018-08-04T01:00:18.705Z,1010.4
2018-08-04T01:01:20.753Z,1010.4
2018-08-04T01:02:22.810Z,1010.3
2018-08-04T01:03:24.864Z,1010.4
2018-08-04T01:04:26.919Z,1010.4
2018-08-04T01:05:28.956Z,1010.4
2018-08-04T01:06:31.012Z,1010.4
2018-08-04T01:07:33.762Z,1010.4
2018-08-04T01:08:35.809Z,1010.4
2018-08-04T01:09:38.171Z,1010.3
2018-08-04T01:10:40.237Z,1010.3
2018-08-04T01:11:42.279Z,1010.4
2018-08-04T01:12:44.332Z,1010.4
2018-08-04T01:13:46.389Z,1010.4
2018-08-04T01:14:48.428Z,1010.4
2018-08-04T01:15:50.752Z,1010.4
2018-08-04T01:16:52.807Z,1010.3
2018-08-04T01:17:54.855Z,1010.4
2018-08-04T01:18:56.907Z,1010.3
2018-08-04T01:19:58.965Z,1010.4
2018-08-04T01:21:01.014Z,1010.4
2018-08-04T01:22:03.077Z,1010.3
2018-08-04T01:23:05.505Z,1010.3
2018-08-04T01:24:07.551Z,1010.3
2018-08-04T01:25:09.890Z,1010.3
2018-08-04T01:26:11.957Z,1010.3
2018-08-04T01:27:14.008Z,1010.3
2018-08-04T01:28:16.070Z,1010.3
2018-08-04T01:29:18.125Z,1010.3
2018-08-04T01:30:20.163Z,1010.3
2018-08-04T01:31:22.225Z,1010.3
2018-08-04T01:32:24.273Z,1010.3
2018-08-04T01:33:26.337Z,1010.3
2018-08-04T01:34:28.382Z,1010.3
2018-08-04T01:35:30.442Z,1010.3
2018-08-04T01:36:32.873Z,1010.3
2018-08-04T01:37:34.914Z,1010.3
2018-08-04T01:38:36.970Z,1010.3
2018-08-04T01:39:39.011Z,1010.3
2018-08-04T01:40:41.356Z,1010.3
2018-08-04T01:41:43.410Z,1010.3
2018-08-04T01:42:45.458Z,1010.3
2018-08-04T01:43:47.543Z,1010.3
2018-08-04T01:44:49.941Z,1010.3
2018-08-04T01:45:52.263Z,1010.3
2018-08-04T01:46:54.315Z,1010.3
2018-08-04T01:47:56.372Z,1010.3
2018-08-04T01:48:58.418Z,1010.3
2018-08-04T01:50:00.458Z,1010.3
2018-08-04T01:51:02.516Z,1010.3
2018-08-04T01:52:04.560Z,1010.4
2018-08-04T01:53:06.601Z,1010.3
2018-08-04T01:54:09.049Z,1010.3
2018-08-04T01:55:11.750Z,1010.4
2018-08-04T01:56:13.806Z,1010.3
2018-08-04T01:57:16.149Z,1010.4
2018-08-04T01:58:18.203Z,1010.4
2018-08-04T01:59:20.243Z,1010.4
2018-08-04T02:00:22.293Z,1010.4
2018-08-04T02:01:24.335Z,1010.4
2018-08-04T02:02:26.379Z,1010.4
2018-08-04T02:03:28.434Z,1010.5
2018-08-04T02:04:30.468Z,1010.5
2018-08-04T02:05:32.511Z,1010.5
2018-08-04T02:06:34.552Z,1010.5
2018-08-04T02:07:36.611Z,1010.5
2018-08-04T02:08:38.655Z,1010.5
2018-08-04T02:09:40.707Z,1010.6
2018-08-04T02:10:42.761Z,1010.6
2018-08-04T02:11:44.799Z,1010.5
2018-08-04T02:12:46.860Z,1010.5
2018-08-04T02:13:49.192Z,1010.5
2018-08-04T02:14:51.233Z,1010.5
2018-08-04T02:15:53.285Z,1010.5
2018-08-04T02:16:55.621Z,1010.5
2018-08-04T02:17:57.972Z,1010.5
2018-08-04T02:19:00.016Z,1010.5
2018-08-04T02:20:02.361Z,1010.5
2018-08-04T02:21:04.723Z,1010.6
2018-08-04T02:22:06.771Z,1010.6
2018-08-04T02:23:08.808Z,1010.5
2018-08-04T02:24:11.163Z,1010.5
2018-08-04T02:25:13.202Z,1010.5
2018-08-04T02:26:15.241Z,1010.5
2018-08-04T02:27:17.293Z,1010.5
2018-08-04T02:28:19.330Z,1010.5
2018-08-04T02:29:21.383Z,1010.5
2018-08-04T02:30:23.725Z,1010.5
2018-08-04T02:31:26.062Z,1010.5
2018-08-04T02:32:28.106Z,1010.5
2018-08-04T02:33:30.442Z,1010.5
2018-08-04T02:34:32.773Z,1010.5
2018-08-04T02:35:34.826Z,1010.5
2018-08-04T02:36:37.473Z,1010.5
2018-08-04T02:37:39.512Z,1010.5
2018-08-04T02:38:42.524Z,1010.5
2018-08-04T02:39:44.568Z,1010.5
2018-08-04T02:40:47.004Z,1010.5
2018-08-04T02:41:49.042Z,1010.5
2018-08-04T02:42:51.097Z,1010.5
2018-08-04T02:43:53.433Z,1010.5
2018-08-04T02:44:56.070Z,1010.5
2018-08-04T02:45:58.410Z,1010.5
2018-08-04T02:47:00.461Z,1010.4
2018-08-04T02:48:03.475Z,1010.5
2018-08-04T02:49:05.518Z,1010.5
2018-08-04T02:50:07.573Z,1010.4
2018-08-04T02:51:10.208Z,1010.4
2018-08-04T02:52:12.627Z,1010.4
2018-08-04T02:53:14.962Z,1010.4
2018-08-04T02:54:17.285Z,1010.4
2018-08-04T02:55:19.335Z,1010.5
2018-08-04T02:56:22.353Z,1010.4
2018-08-04T02:57:24.409Z,1010.4
2018-08-04T02:58:27.023Z,1010.4
2018-08-04T02:59:29.377Z,1010.4
2018-08-04T03:00:31.430Z,1010.4
2018-08-04T03:01:33.783Z,1010.5
2018-08-04T03:02:36.124Z,1010.5
2018-08-04T03:03:38.170Z,1010.4
2018-08-04T03:04:40.228Z,1010.5
2018-08-04T03:05:42.565Z,1010.5
2018-08-04T03:06:44.924Z,1010.5
2018-08-04T03:07:46.971Z,1010.5
2018-08-04T03:08:49.016Z,1010.5
2018-08-04T03:09:51.069Z,1010.5
2018-08-04T03:10:53.106Z,1010.5
2018-08-04T03:11:55.154Z,1010.5
2018-08-04T03:12:57.489Z,1010.5
2018-08-04T03:13:59.541Z,1010.5
2018-08-04T03:15:01.973Z,1010.5
2018-08-04T03:16:04.893Z,1010.5
2018-08-04T03:17:07.612Z,1010.5
2018-08-04T03:18:10.222Z,1010.5
2018-08-04T03:19:12.973Z,1010.5
2018-08-04T03:20:15.018Z,1010.5
2018-08-04T03:21:17.058Z,1010.5
2018-08-04T03:22:20.058Z,1010.5
2018-08-04T03:23:22.115Z,1010.5
2018-08-04T03:24:24.545Z,1010.5
2018-08-04T03:25:26.895Z,1010.4
2018-08-04T03:26:28.946Z,1010.5
2018-08-04T03:27:31.674Z,1010.4
2018-08-04T03:28:33.724Z,1010.4
2018-08-04T03:29:36.453Z,1010.5
2018-08-04T03:30:38.780Z,1010.4
2018-08-04T03:31:41.513Z,1010.4
2018-08-04T03:32:43.573Z,1010.5
2018-08-04T03:33:45.625Z,1010.5
2018-08-04T03:34:48.338Z,1010.5
2018-08-04T03:35:50.393Z,1010.5
2018-08-04T03:36:52.822Z,1010.5
2018-08-04T03:37:54.872Z,1010.5
2018-08-04T03:38:57.195Z,1010.5
2018-08-04T03:39:59.250Z,1010.5
2018-08-04T03:41:01.579Z,1010.5
2018-08-04T03:42:03.621Z,1010.5
2018-08-04T03:43:05.678Z,1010.5
2018-08-04T03:44:07.718Z,1010.5
2018-08-04T03:45:09.764Z,1010.5
2018-08-04T03:46:11.800Z,1010.5
2018-08-04T03:47:14.154Z,1010.5
2018-08-04T03:48:16.194Z,1010.4
2018-08-04T03:49:18.244Z,1010.4
2018-08-04T03:50:20.292Z,1010.5
2018-08-04T03:51:22.326Z,1010.4
2018-08-04T03:52:24.384Z,1010.5
2018-08-04T03:53:26.431Z,1010.5
2018-08-04T03:54:28.479Z,1010.5
2018-08-04T03:55:30.524Z,1010.5
2018-08-04T03:56:32.576Z,1010.5
2018-08-04T03:57:35.289Z,1010.5
2018-08-04T03:58:37.341Z,1010.5
2018-08-04T03:59:39.411Z,1010.5
2018-08-04T04:00:41.424Z,1010.5
2018-08-04T04:01:43.760Z,1010.5
2018-08-04T04:02:45.810Z,1010.4
2018-08-04T04:03:48.236Z,1010.4
2018-08-04T04:04:50.284Z,1010.4
2018-08-04T04:05:52.334Z,1010.4
2018-08-04T04:06:54.371Z,1010.4
2018-08-04T04:07:56.715Z,1010.4
2018-08-04T04:08:58.762Z,1010.4
2018-08-04T04:10:00.804Z,1010.4
2018-08-04T04:11:03.229Z,1010.4
2018-08-04T04:12:05.286Z,1010.4
2018-08-04T04:13:07.325Z,1010.4
2018-08-04T04:14:09.369Z,1010.5
2018-08-04T04:15:11.420Z,1010.4
2018-08-04T04:16:13.460Z,1010.4
2018-08-04T04:17:15.521Z,1010.4
2018-08-04T04:18:17.565Z,1010.4
2018-08-04T04:19:19.617Z,1010.4
2018-08-04T04:20:21.657Z,1010.4
2018-08-04T04:21:23.710Z,1010.4
2018-08-04T04:22:25.751Z,1010.4
2018-08-04T04:23:27.794Z,1010.4
2018-08-04T04:24:29.857Z,1010.4
2018-08-04T04:25:31.896Z,1010.5
2018-08-04T04:26:34.328Z,1010.4
2018-08-04T04:27:36.386Z,1010.4
2018-08-04T04:28:38.438Z,1010.5
2018-08-04T04:29:40.476Z,1010.4
2018-08-04T04:30:42.536Z,1010.4
2018-08-04T04:31:44.863Z,1010.4
2018-08-04T04:32:47.296Z,1010.4
2018-08-04T04:33:49.355Z,1010.4
2018-08-04T04:34:51.402Z,1010.4
2018-08-04T04:35:53.447Z,1010.4
2018-08-04T04:36:55.532Z,1010.4
2018-08-04T04:37:57.918Z,1010.4
2018-08-04T04:38:59.964Z,1010.5
2018-08-04T04:40:02.310Z,1010.4
2018-08-04T04:41:04.349Z,1010.5
2018-08-04T04:42:06.402Z,1010.5
2018-08-04T04:43:08.771Z,1010.5
2018-08-04T04:44:10.823Z,1010.5
2018-08-04T04:45:12.869Z,1010.5
2018-08-04T04:46:14.922Z,1010.5
2018-08-04T04:47:17.255Z,1010.5
2018-08-04T04:48:19.693Z,1010.5
2018-08-04T04:49:22.075Z,1010.5
2018-08-04T04:50:24.520Z,1010.5
2018-08-04T04:51:26.568Z,1010.5
2018-08-04T04:52:28.623Z,1010.5
2018-08-04T04:53:30.952Z,1010.5
2018-08-04T04:54:33.010Z,1010.5
2018-08-04T04:55:35.621Z,1010.5
2018-08-04T04:56:37.664Z,1010.5
2018-08-04T04:57:39.723Z,1010.5
2018-08-04T04:58:41.760Z,1010.5
2018-08-04T04:59:44.091Z,1010.5
2018-08-04T05:00:46.161Z,1010.5
2018-08-04T05:01:48.493Z,1010.5
2018-08-04T05:02:50.533Z,1010.5
2018-08-04T05:03:52.588Z,1010.5
2018-08-04T05:04:54.630Z,1010.5
2018-08-04T05:05:56.673Z,1010.6
2018-08-04T05:06:59.688Z,1010.6
2018-08-04T05:08:01.734Z,1010.5
2018-08-04T05:09:03.775Z,1010.5
2018-08-04T05:10:05.830Z,1010.5
2018-08-04T05:11:07.875Z,1010.5
2018-08-04T05:12:09.919Z,1010.5
2018-08-04T05:13:12.414Z,1010.5
2018-08-04T05:14:14.708Z,1010.5
2018-08-04T05:15:16.759Z,1010.5
2018-08-04T05:16:18.818Z,1010.5
2018-08-04T05:17:21.146Z,1010.5
2018-08-04T05:18:23.190Z,1010.5
2018-08-04T05:19:25.633Z,1010.5
2018-08-04T05:20:27.688Z,1010.5
2018-08-04T05:21:29.745Z,1010.5
2018-08-04T05:22:31.784Z,1010.6
2018-08-04T05:23:33.823Z,1010.5
2018-08-04T05:24:36.152Z,1010.5
2018-08-04T05:25:38.194Z,1010.6
2018-08-04T05:26:40.246Z,1010.5
2018-08-04T05:27:42.292Z,1010.5
2018-08-04T05:28:44.623Z,1010.6
2018-08-04T05:29:46.669Z,1010.6
2018-08-04T05:30:48.730Z,1010.5
2018-08-04T05:31:50.769Z,1010.5
2018-08-04T05:32:52.823Z,1010.5
2018-08-04T05:33:54.886Z,1010.5
2018-08-04T05:34:56.924Z,1010.5
2018-08-04T05:35:58.965Z,1010.5
2018-08-04T05:37:01.023Z,1010.5
2018-08-04T05:38:03.346Z,1010.5
2018-08-04T05:39:05.394Z,1010.5
2018-08-04T05:40:07.743Z,1010.5
2018-08-04T05:41:10.462Z,1010.5
2018-08-04T05:42:12.506Z,1010.5
2018-08-04T05:43:14.592Z,1010.5
2018-08-04T05:44:16.607Z,1010.5
2018-08-04T05:45:19.042Z,1010.5
2018-08-04T05:46:21.096Z,1010.5
2018-08-04T05:47:23.136Z,1010.5
2018-08-04T05:48:25.579Z,1010.5
2018-08-04T05:49:27.631Z,1010.5
2018-08-04T05:50:29.984Z,1010.5
2018-08-04T05:51:32.032Z,1010.5
2018-08-04T05:52:34.084Z,1010.5
2018-08-04T05:53:36.142Z,1010.5
2018-08-04T05:54:38.179Z,1010.5
2018-08-04T05:55:40.244Z,1010.5
2018-08-04T05:56:42.285Z,1010.5
2018-08-04T05:57:44.334Z,1010.5
2018-08-04T05:58:46.378Z,1010.5
2018-08-04T05:59:48.434Z,1010.5
2018-08-04T06:00:50.479Z,1010.5
2018-08-04T06:01:52.537Z,1010.5
2018-08-04T06:02:55.160Z,1010.5
2018-08-04T06:03:57.201Z,1010.5
2018-08-04T06:04:59.258Z,1010.5
2018-08-04T06:06:01.364Z,1010.5
2018-08-04T06:07:03.703Z,1010.5
2018-08-04T06:08:05.753Z,1010.5
2018-08-04T06:09:07.796Z,1010.5
2018-08-04T06:10:09.853Z,1010.5
2018-08-04T06:11:12.585Z,1010.6
2018-08-04T06:12:14.639Z,1010.5
2018-08-04T06:13:16.697Z,1010.5
2018-08-04T06:14:18.748Z,1010.5
2018-08-04T06:15:20.794Z,1010.5
2018-08-04T06:16:22.848Z,1010.6
2018-08-04T06:17:24.895Z,1010.5
2018-08-04T06:18:27.240Z,1010.5
2018-08-04T06:19:29.303Z,1010.6
2018-08-04T06:20:31.339Z,1010.5
2018-08-04T06:21:33.399Z,1010.6
2018-08-04T06:22:35.450Z,1010.5
2018-08-04T06:23:37.508Z,1010.5
2018-08-04T06:24:39.555Z,1010.5
2018-08-04T06:25:41.608Z,1010.6
2018-08-04T06:26:43.950Z,1010.6
2018-08-04T06:27:45.994Z,1010.6
2018-08-04T06:28:48.056Z,1010.7
2018-08-04T06:29:50.091Z,1010.6
2018-08-04T06:30:52.139Z,1010.7
2018-08-04T06:31:54.185Z,1010.7
2018-08-04T06:32:56.244Z,1010.6
2018-08-04T06:33:58.598Z,1010.6
2018-08-04T06:35:00.655Z,1010.7
2018-08-04T06:36:02.990Z,1010.7
2018-08-04T06:37:05.037Z,1010.7
2018-08-04T06:38:07.097Z,1010.7
2018-08-04T06:39:09.146Z,1010.7
2018-08-04T06:40:11.192Z,1010.7
2018-08-04T06:41:13.245Z,1010.7
2018-08-04T06:42:15.297Z,1010.6
2018-08-04T06:43:17.345Z,1010.6
2018-08-04T06:44:19.397Z,1010.6
2018-08-04T06:45:21.450Z,1010.5
2018-08-04T06:46:23.803Z,1010.6
2018-08-04T06:47:25.854Z,1010.6
2018-08-04T06:48:27.908Z,1010.7
2018-08-04T06:49:29.950Z,1010.6
2018-08-04T06:50:31.953Z,1010.6
2018-08-04T06:51:33.988Z,1010.6
2018-08-04T06:52:36.013Z,1010.6
2018-08-04T06:53:38.082Z,1010.6
2018-08-04T06:54:40.163Z,1010.6
2018-08-04T06:55:42.185Z,1010.6
2018-08-04T06:56:44.650Z,1010.6
2018-08-04T06:57:46.704Z,1010.5
2018-08-04T06:58:49.061Z,1010.6
2018-08-04T06:59:51.376Z,1010.6
2018-08-04T07:00:53.405Z,1010.6
2018-08-04T07:01:55.846Z,1010.6
2018-08-04T07:02:57.849Z,1010.6
2018-08-04T07:03:59.911Z,1010.7
2018-08-04T07:05:02.250Z,1010.6
2018-08-04T07:06:04.295Z,1010.6
2018-08-04T07:07:06.332Z,1010.6
2018-08-04T07:08:08.771Z,1010.6
2018-08-04T07:09:10.885Z,1010.6
2018-08-04T07:10:13.271Z,1010.6
2018-08-04T07:11:15.620Z,1010.6
2018-08-04T07:12:17.723Z,1010.6
2018-08-04T07:13:19.795Z,1010.5
2018-08-04T07:14:22.236Z,1010.5
2018-08-04T07:15:25.109Z,1010.5
2018-08-04T07:16:27.129Z,1010.5
2018-08-04T07:17:29.548Z,1010.5
2018-08-04T07:18:31.625Z,1010.6
2018-08-04T07:19:34.107Z,1010.6
2018-08-04T07:20:36.250Z,1010.6
2018-08-04T07:21:38.588Z,1010.6
2018-08-04T07:22:40.638Z,1010.6
2018-08-04T07:23:42.665Z,1010.6
2018-08-04T07:24:45.263Z,1010.6
2018-08-04T07:25:47.320Z,1010.6
2018-08-04T07:26:49.328Z,1010.7
2018-08-04T07:27:51.359Z,1010.6
2018-08-04T07:28:53.745Z,1010.7
2018-08-04T07:29:55.748Z,1010.7
2018-08-04T07:30:57.793Z,1010.7
2018-08-04T07:32:00.125Z,1010.7
2018-08-04T07:33:02.438Z,1010.8
2018-08-04T07:34:04.780Z,1010.7
2018-08-04T07:35:06.851Z,1010.8
2018-08-04T07:36:08.884Z,1010.7
2018-08-04T07:37:10.921Z,1010.7
2018-08-04T07:38:12.954Z,1010.7
2018-08-04T07:39:15.272Z,1010.7
2018-08-04T07:40:17.623Z,1010.7
2018-08-04T07:41:19.636Z,1010.8
2018-08-04T07:42:21.692Z,1010.8
2018-08-04T07:43:24.041Z,1010.8
2018-08-04T07:44:26.067Z,1010.8
2018-08-04T07:45:28.460Z,1010.8
2018-08-04T07:46:30.507Z,1010.8
2018-08-04T07:47:32.966Z,1010.8
2018-08-04T07:48:34.997Z,1010.8
2018-08-04T07:49:37.011Z,1010.8
2018-08-04T07:50:39.066Z,1010.9
2018-08-04T07:51:41.099Z,1010.8
2018-08-04T07:52:43.500Z,1010.8
2018-08-04T07:53:45.522Z,1010.8
2018-08-04T07:54:47.541Z,1010.8
2018-08-04T07:55:49.834Z,1010.8
2018-08-04T07:56:52.219Z,1010.8
2018-08-04T07:57:54.280Z,1010.8
2018-08-04T07:58:56.313Z,1010.8
2018-08-04T07:59:58.353Z,1010.8
2018-08-04T08:01:00.702Z,1010.8
2018-08-04T08:02:02.715Z,1010.8
2018-08-04T08:03:04.785Z,1010.8
2018-08-04T08:04:06.823Z,1010.8
2018-08-04T08:05:09.233Z,1010.8
2018-08-04T08:06:11.561Z,1010.8
2018-08-04T08:07:13.609Z,1010.8
2018-08-04T08:08:15.663Z,1010.8
2018-08-04T08:09:17.978Z,1010.8
2018-08-04T08:10:20.133Z,1010.8
2018-08-04T08:11:22.214Z,1010.9
2018-08-04T08:12:24.126Z,1010.8
2018-08-04T08:13:26.131Z,1010.8
2018-08-04T08:14:28.154Z,1010.8
2018-08-04T08:15:30.183Z,1010.8
2018-08-04T08:16:32.213Z,1010.9
2018-08-04T08:17:34.261Z,1010.8
2018-08-04T08:18:36.594Z,1010.8
2018-08-04T08:19:38.942Z,1010.9
2018-08-04T08:20:40.991Z,1010.9
2018-08-04T08:21:43.028Z,1010.9
2018-08-04T08:22:45.048Z,1010.9
2018-08-04T08:23:47.080Z,1010.9
2018-08-04T08:24:49.137Z,1010.9
2018-08-04T08:25:51.966Z,1010.9
2018-08-04T08:26:53.987Z,1010.9
2018-08-04T08:27:56.338Z,1010.9
2018-08-04T08:28:58.367Z,1010.9
2018-08-04T08:30:00.394Z,1010.9
2018-08-04T08:31:02.438Z,1010.9
2018-08-04T08:32:04.829Z,1010.9
2018-08-04T08:33:07.136Z,1010.9
2018-08-04T08:34:09.146Z,1010.8
2018-08-04T08:35:11.169Z,1010.9
2018-08-04T08:36:13.474Z,1010.9
2018-08-04T08:37:17.192Z,1010.9
2018-08-04T08:38:26.779Z,1010.9
2018-08-04T08:39:33.426Z,1010.9
2018-08-04T08:40:35.456Z,1010.9
2018-08-04T08:41:37.489Z,1010.9
2018-08-04T08:42:40.215Z,1011
2018-08-04T08:43:42.829Z,1010.9
2018-08-04T08:44:45.246Z,1010.9
2018-08-04T08:45:47.566Z,1010.9
2018-08-04T08:46:50.249Z,1010.9
2018-08-04T08:47:52.267Z,1010.9
2018-08-04T08:48:54.568Z,1010.9
2018-08-04T08:49:56.576Z,1011
2018-08-04T08:50:58.600Z,1011
2018-08-04T08:52:00.618Z,1011
2018-08-04T08:53:03.076Z,1011
2018-08-04T08:54:05.192Z,1011
2018-08-04T08:55:07.577Z,1011
2018-08-04T08:56:09.588Z,1011
2018-08-04T08:57:11.606Z,1010.9
2018-08-04T08:58:13.624Z,1010.9
2018-08-04T08:59:15.628Z,1010.9
2018-08-04T09:00:18.026Z,1010.9
2018-08-04T09:01:20.452Z,1011
2018-08-04T09:02:22.411Z,1010.9
2018-08-04T09:03:24.431Z,1010.9
2018-08-04T09:04:26.452Z,1010.9
2018-08-04T09:05:28.460Z,1010.9
2018-08-04T09:06:30.485Z,1010.9
2018-08-04T09:07:32.491Z,1010.9
2018-08-04T09:08:34.803Z,1010.9
2018-08-04T09:09:36.797Z,1010.9
2018-08-04T09:10:38.817Z,1010.9
2018-08-04T09:11:41.114Z,1010.9
2018-08-04T09:12:43.427Z,1010.9
2018-08-04T09:13:45.449Z,1010.9
2018-08-04T09:14:47.733Z,1010.9
2018-08-04T09:15:49.758Z,1010.9
2018-08-04T09:16:51.775Z,1010.9
2018-08-04T09:17:53.798Z,1010.9
2018-08-04T09:18:55.821Z,1010.9
2018-08-04T09:19:57.847Z,1010.8
2018-08-04T09:21:00.145Z,1010.9
2018-08-04T09:22:02.447Z,1010.8
2018-08-04T09:23:04.489Z,1010.8
2018-08-04T09:24:06.493Z,1010.8
2018-08-04T09:25:08.788Z,1010.9
2018-08-04T09:26:10.812Z,1010.8
2018-08-04T09:27:13.128Z,1010.8
2018-08-04T09:28:15.144Z,1010.8
2018-08-04T09:29:17.167Z,1010.8
2018-08-04T09:30:19.181Z,1010.8
2018-08-04T09:31:21.201Z,1010.8
2018-08-04T09:32:23.226Z,1010.8
2018-08-04T09:33:25.260Z,1010.8
2018-08-04T09:34:27.676Z,1010.8
2018-08-04T09:35:29.945Z,1010.8
2018-08-04T09:36:32.054Z,1010.8
2018-08-04T09:37:34.350Z,1010.8
2018-08-04T09:38:36.377Z,1010.9
2018-08-04T09:39:38.384Z,1010.9
2018-08-04T09:40:40.410Z,1010.8
2018-08-04T09:41:42.449Z,1010.9
2018-08-04T09:42:44.456Z,1010.8
2018-08-04T09:43:46.767Z,1010.8
2018-08-04T09:44:48.791Z,1010.8
2018-08-04T09:45:50.806Z,1010.8
2018-08-04T09:46:52.822Z,1010.8
2018-08-04T09:47:54.857Z,1010.8
2018-08-04T09:48:57.253Z,1010.9
2018-08-04T09:49:59.274Z,1010.8
2018-08-04T09:51:01.289Z,1010.8
2018-08-04T09:52:03.317Z,1010.8
2018-08-04T09:53:05.332Z,1010.9
2018-08-04T09:54:07.347Z,1010.8
2018-08-04T09:55:09.364Z,1010.8
2018-08-04T09:56:11.393Z,1010.9
2018-08-04T09:57:13.408Z,1010.8
2018-08-04T09:58:15.432Z,1010.8
2018-08-04T09:59:17.458Z,1010.8
2018-08-04T10:00:19.481Z,1010.8
2018-08-04T10:01:21.893Z,1010.8
2018-08-04T10:02:23.927Z,1010.8
2018-08-04T10:03:26.508Z,1010.8
2018-08-04T10:04:28.531Z,1010.8
2018-08-04T10:05:30.871Z,1010.8
2018-08-04T10:06:33.452Z,1010.8
2018-08-04T10:07:35.759Z,1010.8
2018-08-04T10:08:37.795Z,1010.8
2018-08-04T10:09:39.865Z,1010.8
2018-08-04T10:10:41.973Z,1010.8
2018-08-04T10:11:44.065Z,1010.8
2018-08-04T10:12:46.204Z,1010.8
2018-08-04T10:13:48.528Z,1010.9
2018-08-04T10:14:50.620Z,1010.8
2018-08-04T10:15:52.690Z,1010.9
2018-08-04T10:16:54.799Z,1010.9
2018-08-04T10:17:56.864Z,1010.8
2018-08-04T10:18:58.978Z,1010.8
2018-08-04T10:20:01.061Z,1010.9
2018-08-04T10:21:03.120Z,1010.8
2018-08-04T10:22:05.578Z,1010.9
2018-08-04T10:23:07.648Z,1010.8
2018-08-04T10:24:10.043Z,1010.8
2018-08-04T10:25:12.381Z,1010.8
2018-08-04T10:26:14.481Z,1010.8
2018-08-04T10:27:16.852Z,1010.8
2018-08-04T10:28:19.015Z,1010.7
2018-08-04T10:29:21.107Z,1010.8
2018-08-04T10:30:23.294Z,1010.7
2018-08-04T10:31:25.362Z,1010.7
2018-08-04T10:32:27.464Z,1010.7
2018-08-04T10:33:29.924Z,1010.7
2018-08-04T10:34:32.001Z,1010.7
2018-08-04T10:35:34.078Z,1010.7
2018-08-04T10:36:36.174Z,1010.7
2018-08-04T10:37:38.254Z,1010.7
2018-08-04T10:38:40.722Z,1010.7
2018-08-04T10:39:43.263Z,1010.7
2018-08-04T10:40:45.359Z,1010.7
2018-08-04T10:41:47.424Z,1010.7
2018-08-04T10:42:49.548Z,1010.7
2018-08-04T10:43:51.674Z,1010.7
2018-08-04T10:44:53.707Z,1010.7
2018-08-04T10:45:55.806Z,1010.7
2018-08-04T10:46:57.894Z,1010.7
2018-08-04T10:48:00.080Z,1010.7
2018-08-04T10:49:02.207Z,1010.7
2018-08-04T10:50:04.420Z,1010.7
2018-08-04T10:51:06.515Z,1010.7
2018-08-04T10:52:08.602Z,1010.7
2018-08-04T10:53:10.690Z,1010.7
2018-08-04T10:54:13.127Z,1010.7
2018-08-04T10:55:15.206Z,1010.7
2018-08-04T10:56:17.291Z,1010.7
2018-08-04T10:57:19.374Z,1010.7
2018-08-04T10:58:21.463Z,1010.7
2018-08-04T10:59:23.549Z,1010.7
2018-08-04T11:00:25.985Z,1010.7
2018-08-04T11:01:28.086Z,1010.7
2018-08-04T11:02:30.196Z,1010.7
2018-08-04T11:03:32.271Z,1010.6
2018-08-04T11:04:34.370Z,1010.6
2018-08-04T11:05:36.775Z,1010.6
2018-08-04T11:06:38.859Z,1010.6
2018-08-04T11:07:40.949Z,1010.6
2018-08-04T11:08:43.048Z,1010.6
2018-08-04T11:09:45.151Z,1010.6
2018-08-04T11:10:47.250Z,1010.6
2018-08-04T11:11:49.625Z,1010.6
2018-08-04T11:12:51.708Z,1010.6
2018-08-04T11:13:53.791Z,1010.6
2018-08-04T11:14:56.546Z,1010.6
2018-08-04T11:15:58.620Z,1010.6
2018-08-04T11:17:01.015Z,1010.6
2018-08-04T11:18:03.128Z,1010.6
2018-08-04T11:19:05.608Z,1010.6
2018-08-04T11:20:07.679Z,1010.5
2018-08-04T11:21:10.080Z,1010.5
2018-08-04T11:22:12.136Z,1010.5
2018-08-04T11:23:14.244Z,1010.5
2018-08-04T11:24:16.373Z,1010.5
2018-08-04T11:25:18.429Z,1010.6
2018-08-04T11:26:20.501Z,1010.6
2018-08-04T11:27:22.608Z,1010.6
2018-08-04T11:28:24.703Z,1010.5
2018-08-04T11:29:27.177Z,1010.6
2018-08-04T11:30:29.335Z,1010.6
2018-08-04T11:31:31.459Z,1010.5
2018-08-04T11:32:33.607Z,1010.5
2018-08-04T11:33:35.716Z,1010.6
2018-08-04T11:34:37.805Z,1010.6
2018-08-04T11:35:39.904Z,1010.6
2018-08-04T11:36:42.565Z,1010.6
2018-08-04T11:37:44.666Z,1010.6
2018-08-04T11:38:47.106Z,1010.6
2018-08-04T11:39:49.194Z,1010.6
2018-08-04T11:40:51.315Z,1010.6
2018-08-04T11:41:53.398Z,1010.6
2018-08-04T11:42:55.508Z,1010.7
2018-08-04T11:43:57.611Z,1010.7
2018-08-04T11:44:59.713Z,1010.6
2018-08-04T11:46:01.798Z,1010.6
2018-08-04T11:47:03.881Z,1010.6
2018-08-04T11:48:05.970Z,1010.6
2018-08-04T11:49:08.113Z,1010.6
2018-08-04T11:50:10.193Z,1010.6
2018-08-04T11:51:12.303Z,1010.6
2018-08-04T11:52:14.371Z,1010.6
2018-08-04T11:53:16.450Z,1010.6
2018-08-04T11:54:18.520Z,1010.5
2018-08-04T11:55:20.589Z,1010.6
2018-08-04T11:56:22.650Z,1010.6
2018-08-04T11:57:24.719Z,1010.5
2018-08-04T11:58:26.809Z,1010.5
2018-08-04T11:59:28.848Z,1010.5
2018-08-04T12:00:30.929Z,1010.5
2018-08-04T12:01:32.981Z,1010.5
2018-08-04T12:02:35.049Z,1010.5
2018-08-04T12:03:37.112Z,1010.5
2018-08-04T12:04:39.186Z,1010.4
2018-08-04T12:05:41.250Z,1010.4
2018-08-04T12:06:43.325Z,1010.4
2018-08-04T12:07:45.677Z,1010.4
2018-08-04T12:08:47.736Z,1010.5
2018-08-04T12:09:49.812Z,1010.5
2018-08-04T12:10:52.181Z,1010.4
2018-08-04T12:11:54.631Z,1010.5
2018-08-04T12:12:56.699Z,1010.5
2018-08-04T12:13:58.769Z,1010.5
2018-08-04T12:15:00.830Z,1010.5
2018-08-04T12:16:02.907Z,1010.5
2018-08-04T12:17:04.974Z,1010.5
2018-08-04T12:18:07.100Z,1010.5
2018-08-04T12:19:09.481Z,1010.5
2018-08-04T12:20:11.553Z,1010.5
2018-08-04T12:21:13.617Z,1010.5
2018-08-04T12:22:15.689Z,1010.5
2018-08-04T12:23:17.778Z,1010.5
2018-08-04T12:24:19.831Z,1010.6
2018-08-04T12:25:21.888Z,1010.5
2018-08-04T12:26:24.289Z,1010.5
2018-08-04T12:27:26.742Z,1010.5
2018-08-04T12:28:28.814Z,1010.5
2018-08-04T12:29:30.878Z,1010.5
2018-08-04T12:30:32.946Z,1010.5
2018-08-04T12:31:35.031Z,1010.4
2018-08-04T12:32:37.074Z,1010.4
2018-08-04T12:33:39.565Z,1010.5
2018-08-04T12:34:41.623Z,1010.5
2018-08-04T12:35:43.977Z,1010.4
2018-08-04T12:36:46.043Z,1010.4
2018-08-04T12:37:48.115Z,1010.4
2018-08-04T12:38:50.186Z,1010.3
2018-08-04T12:39:52.562Z,1010.4
2018-08-04T12:40:54.634Z,1010.4
2018-08-04T12:41:56.694Z,1010.4
2018-08-04T12:42:58.775Z,1010.4
2018-08-04T12:44:01.129Z,1010.4
2018-08-04T12:45:03.488Z,1010.4
2018-08-04T12:46:05.555Z,1010.3
2018-08-04T12:47:07.632Z,1010.4
2018-08-04T12:48:09.985Z,1010.3
2018-08-04T12:49:12.060Z,1010.3
2018-08-04T12:50:14.127Z,1010.3
2018-08-04T12:51:16.186Z,1010.3
2018-08-04T12:52:18.538Z,1010.3
2018-08-04T12:53:20.880Z,1010.3
2018-08-04T12:54:22.947Z,1010.3
2018-08-04T12:55:25.055Z,1010.3
2018-08-04T12:56:27.799Z,1010.3